createdAt,value
2018-09-09T00:00:31.603Z,75.11
2018-09-09T00:03:56.397Z,76.19
2018-09-09T00:07:21.225Z,75.20
2018-09-09T00:10:48.343Z,75.64
2018-09-09T00:14:13.257Z,77.67
2018-09-09T00:17:38.364Z,78.32
2018-09-09T00:21:08.234Z,76.53
2018-09-09T00:24:32.992Z,76.46
2018-09-09T00:27:57.730Z,76.20
2018-09-09T00:31:23.684Z,76.25
2018-09-09T00:34:48.520Z,76.48
2018-09-09T00:38:13.395Z,78.23
2018-09-09T00:41:38.252Z,79.31
2018-09-09T00:45:03.151Z,77.79
2018-09-09T00:48:28.032Z,76.68
2018-09-09T00:51:58.324Z,77.44
2018-09-09T00:55:23.224Z,77.46
2018-09-09T00:58:48.007Z,77.96
2018-09-09T01:02:12.953Z,78.64
2018-09-09T01:05:37.873Z,78.79
2018-09-09T01:09:02.785Z,78.71
2018-09-09T01:12:27.847Z,78.59
2018-09-09T01:15:53.300Z,78.83
2018-09-09T01:19:18.146Z,78.76
2018-09-09T01:22:44.571Z,78.89
2018-09-09T01:26:09.431Z,77.97
2018-09-09T01:29:34.313Z,78.84
2018-09-09T01:32:59.409Z,79.19
2018-09-09T01:36:24.222Z,79.15
2018-09-09T01:39:49.724Z,80.73
2018-09-09T01:43:14.766Z,79.74
2018-09-09T01:46:39.672Z,80.30
2018-09-09T01:50:04.644Z,79.52
2018-09-09T01:53:29.453Z,79.88
2018-09-09T01:56:54.353Z,81.10
2018-09-09T02:00:19.298Z,81.05
2018-09-09T02:03:44.255Z,80.44
2018-09-09T02:07:09.029Z,80.65
2018-09-09T02:10:33.853Z,82.03
2018-09-09T02:13:59.206Z,82.27
2018-09-09T02:17:24.023Z,82.26
2018-09-09T02:20:48.919Z,80.58
2018-09-09T02:24:13.781Z,81.86
2018-09-09T02:27:38.603Z,82.14
2018-09-09T02:31:03.312Z,82.09
2018-09-09T02:34:28.077Z,81.85
2018-09-09T02:37:52.785Z,84.26
2018-09-09T02:41:17.619Z,83.23
2018-09-09T02:44:42.524Z,83.61
2018-09-09T02:48:07.315Z,83.73
2018-09-09T02:51:32.139Z,83.89
2018-09-09T02:54:56.950Z,83.26
2018-09-09T02:58:21.681Z,82.70
2018-09-09T03:01:46.383Z,83.51
2018-09-09T03:05:11.249Z,82.05
2018-09-09T03:08:36.193Z,82.84
2018-09-09T03:12:00.947Z,83.15
2018-09-09T03:15:25.841Z,83.56
2018-09-09T03:18:50.705Z,83.92
2018-09-09T03:22:15.411Z,84.04
2018-09-09T03:25:40.280Z,83.95
2018-09-09T03:29:05.023Z,83.92
2018-09-09T03:32:29.813Z,84.73
2018-09-09T03:35:54.615Z,84.36
2018-09-09T03:39:19.428Z,82.73
2018-09-09T03:42:44.210Z,83.75
2018-09-09T03:46:09.039Z,84.03
2018-09-09T03:49:33.805Z,83.89
2018-09-09T03:52:58.653Z,84.83
2018-09-09T03:56:23.405Z,84.30
2018-09-09T03:59:48.214Z,85.31
2018-09-09T04:03:12.899Z,84.59
2018-09-09T04:06:37.641Z,83.84
2018-09-09T04:10:03.248Z,84.40
2018-09-09T04:13:27.922Z,84.21
2018-09-09T04:16:52.662Z,84.56
2018-09-09T04:20:17.466Z,85.13
2018-09-09T04:23:42.111Z,85.08
2018-09-09T04:27:06.807Z,84.99
2018-09-09T04:30:31.645Z,85.92
2018-09-09T04:33:56.424Z,85.85
2018-09-09T04:37:21.177Z,85.85
2018-09-09T04:40:45.926Z,86.42
2018-09-09T04:44:12.046Z,86.47
2018-09-09T04:47:36.990Z,86.91
2018-09-09T04:51:02.012Z,86.80
2018-09-09T04:54:26.722Z,87.23
2018-09-09T04:57:51.452Z,86.13
2018-09-09T05:01:16.293Z,85.69
2018-09-09T05:04:40.934Z,86.04
2018-09-09T05:08:05.708Z,85.68
2018-09-09T05:11:30.470Z,85.73
2018-09-09T05:14:55.136Z,86.28
2018-09-09T05:18:19.790Z,86.25
2018-09-09T05:21:44.470Z,86.67
2018-09-09T05:25:09.244Z,85.99
2018-09-09T05:28:33.929Z,86.12
2018-09-09T05:31:59.083Z,86.04
2018-09-09T05:35:23.791Z,86.29
2018-09-09T05:38:48.515Z,84.91
2018-09-09T05:42:13.222Z,85.48
2018-09-09T05:45:38.016Z,86.08
2018-09-09T05:49:02.855Z,85.85
2018-09-09T05:52:27.526Z,85.53
2018-09-09T05:55:52.351Z,86.55
2018-09-09T05:59:17.032Z,86.56
2018-09-09T06:02:41.834Z,85.94
2018-09-09T06:06:06.586Z,85.75
2018-09-09T06:09:31.328Z,84.93
2018-09-09T06:12:56.001Z,83.74
2018-09-09T06:16:20.697Z,83.86
2018-09-09T06:19:45.425Z,82.92
2018-09-09T06:23:10.323Z,83.41
2018-09-09T06:26:35.237Z,83.41
2018-09-09T06:29:59.997Z,83.89
2018-09-09T06:33:24.753Z,83.00
2018-09-09T06:36:49.550Z,82.25
2018-09-09T06:40:14.364Z,82.20
2018-09-09T06:43:39.122Z,83.17
2018-09-09T06:47:03.775Z,82.31
2018-09-09T06:50:28.458Z,81.23
2018-09-09T06:53:53.152Z,80.99
2018-09-09T06:57:17.888Z,80.40
2018-09-09T07:00:42.726Z,80.12
2018-09-09T07:04:07.550Z,79.79
2018-09-09T07:07:32.315Z,79.47
2018-09-09T07:10:57.140Z,78.29
2018-09-09T07:14:21.742Z,78.53
2018-09-09T07:17:46.435Z,77.70
2018-09-09T07:21:11.140Z,77.79
2018-09-09T07:24:35.925Z,77.42
2018-09-09T07:28:00.668Z,76.17
2018-09-09T07:31:25.514Z,76.23
2018-09-09T07:34:50.984Z,76.46
2018-09-09T07:38:15.777Z,76.46
2018-09-09T07:41:40.770Z,75.85
2018-09-09T07:45:06.434Z,75.46
2018-09-09T07:48:31.815Z,75.12
2018-09-09T07:51:57.319Z,74.82
2018-09-09T07:55:22.063Z,74.33
2018-09-09T07:58:47.032Z,74.31
2018-09-09T08:02:12.610Z,74.44
2018-09-09T08:07:01.858Z,74.92
2018-09-09T08:10:27.584Z,74.50
2018-09-09T08:13:52.389Z,73.49
2018-09-09T08:17:17.201Z,73.25
2018-09-09T08:20:42.188Z,72.45
2018-09-09T08:24:07.482Z,72.85
2018-09-09T08:27:33.549Z,70.14
2018-09-09T08:31:00.032Z,70.22
2018-09-09T08:34:24.845Z,66.50
2018-09-09T08:37:49.786Z,66.82
2018-09-09T08:41:14.622Z,69.18
2018-09-09T08:46:04.210Z,70.42
2018-09-09T08:49:30.582Z,69.68
2018-09-09T08:52:55.874Z,68.13
2018-09-09T08:56:21.234Z,68.59
2018-09-09T08:59:46.435Z,64.31
2018-09-09T09:03:11.954Z,65.83
2018-09-09T09:06:42.601Z,66.71
2018-09-09T09:10:08.472Z,66.02
2018-09-09T09:13:34.192Z,66.49
2018-09-09T09:16:59.605Z,65.51
2018-09-09T09:20:26.434Z,65.14
2018-09-09T09:23:51.992Z,64.12
2018-09-09T09:27:17.508Z,65.50
2018-09-09T09:30:43.354Z,65.00
2018-09-09T09:34:08.660Z,64.07
2018-09-09T09:37:33.998Z,64.22
2018-09-09T09:41:02.341Z,62.32
2018-09-09T09:44:27.998Z,62.33
2018-09-09T09:47:55.737Z,63.85
2018-09-09T09:51:21.302Z,62.70
2018-09-09T09:54:46.786Z,62.80
2018-09-09T09:58:12.107Z,62.50
2018-09-09T10:01:38.730Z,61.89
2018-09-09T10:05:04.689Z,59.72
2018-09-09T10:08:34.814Z,59.26
2018-09-09T10:12:00.097Z,58.25
2018-09-09T10:15:25.578Z,57.74
2018-09-09T10:18:50.869Z,58.29
2018-09-09T10:22:16.260Z,59.02
2018-09-09T10:25:42.618Z,57.92
2018-09-09T10:29:08.016Z,57.32
2018-09-09T10:32:34.462Z,57.14
2018-09-09T10:37:23.716Z,56.55
2018-09-09T10:40:48.586Z,56.85
2018-09-09T10:44:13.396Z,56.45
2018-09-09T10:47:38.172Z,56.02
2018-09-09T10:51:02.962Z,54.57
2018-09-09T10:54:27.734Z,54.32
2018-09-09T10:57:52.502Z,55.12
2018-09-09T11:01:18.162Z,53.81
2018-09-09T11:04:43.020Z,53.78
2018-09-09T11:08:07.975Z,54.17
2018-09-09T11:11:32.758Z,53.65
2018-09-09T11:14:59.288Z,53.81
2018-09-09T11:18:24.159Z,52.99
2018-09-09T11:21:49.479Z,51.54
2018-09-09T11:25:14.455Z,53.18
2018-09-09T11:28:40.025Z,51.53
2018-09-09T11:32:04.883Z,52.20
2018-09-09T11:35:29.775Z,51.39
2018-09-09T11:38:54.603Z,49.83
2018-09-09T11:42:19.379Z,51.26
2018-09-09T11:49:18.545Z,48.40
2018-09-09T11:52:43.377Z,48.80
2018-09-09T11:56:08.312Z,46.07
2018-09-09T11:59:33.329Z,44.99
2018-09-09T12:02:58.121Z,44.75
2018-09-09T12:06:22.960Z,47.00
2018-09-09T12:09:47.801Z,44.56
2018-09-09T12:13:12.609Z,44.21
2018-09-09T12:16:37.772Z,45.41
2018-09-09T12:20:02.666Z,47.55
2018-09-09T12:23:27.479Z,47.56
2018-09-09T12:26:52.268Z,48.09
2018-09-09T12:30:16.978Z,46.90
2018-09-09T12:33:41.702Z,47.55
2018-09-09T12:37:06.592Z,46.89
2018-09-09T12:40:31.495Z,45.86
2018-09-09T12:44:01.612Z,44.22
2018-09-09T12:47:31.667Z,45.99
2018-09-09T12:50:56.569Z,41.71
2018-09-09T12:54:21.543Z,41.79
2018-09-09T12:57:46.773Z,41.37
2018-09-09T13:01:11.570Z,39.97
2018-09-09T13:04:36.371Z,43.78
2018-09-09T13:08:01.602Z,39.06
2018-09-09T13:11:26.448Z,39.64
2018-09-09T13:14:51.190Z,39.55
2018-09-09T13:18:15.980Z,41.15
2018-09-09T13:21:40.958Z,42.12
2018-09-09T13:25:05.760Z,37.89
2018-09-09T13:28:30.560Z,38.95
2018-09-09T13:31:55.452Z,40.87
2018-09-09T13:35:20.306Z,38.07
2018-09-09T13:38:45.080Z,37.38
2018-09-09T13:42:09.941Z,37.08
2018-09-09T13:45:34.722Z,37.92
2018-09-09T13:48:59.607Z,38.89
2018-09-09T13:52:24.491Z,37.90
2018-09-09T13:55:49.130Z,38.18
2018-09-09T13:59:13.935Z,37.74
2018-09-09T14:02:38.708Z,38.66
2018-09-09T14:06:03.457Z,37.73
2018-09-09T14:09:28.226Z,39.33
2018-09-09T14:12:52.926Z,38.87
2018-09-09T14:16:17.617Z,38.43
2018-09-09T14:19:42.618Z,38.36
2018-09-09T14:23:07.370Z,38.13
2018-09-09T14:26:32.150Z,39.14
2018-09-09T14:29:56.833Z,39.37
2018-09-09T14:33:22.788Z,38.08
2018-09-09T14:36:47.572Z,37.73
2018-09-09T14:40:12.402Z,37.99
2018-09-09T14:43:37.059Z,37.30
2018-09-09T14:47:01.822Z,38.51
2018-09-09T14:50:27.030Z,38.35
2018-09-09T14:53:51.793Z,36.80
2018-09-09T14:57:16.528Z,37.71
2018-09-09T15:00:41.293Z,37.14
2018-09-09T15:04:05.981Z,39.47
2018-09-09T15:07:30.691Z,37.06
2018-09-09T15:10:55.413Z,35.47
2018-09-09T15:14:20.220Z,34.89
2018-09-09T15:17:45.099Z,35.21
2018-09-09T15:21:09.862Z,34.42
2018-09-09T15:24:36.341Z,34.94
2018-09-09T15:28:01.554Z,33.95
2018-09-09T15:31:26.478Z,32.48
2018-09-09T15:34:51.482Z,32.47
2018-09-09T15:38:16.376Z,32.40
2018-09-09T15:41:41.303Z,31.82
2018-09-09T15:45:06.365Z,32.06
2018-09-09T15:48:31.164Z,31.58
2018-09-09T15:51:56.033Z,31.59
2018-09-09T15:55:20.868Z,31.44
2018-09-09T15:58:45.550Z,32.42
2018-09-09T16:02:10.360Z,31.32
2018-09-09T16:05:35.119Z,30.57
2018-09-09T16:08:59.866Z,31.50
2018-09-09T16:12:25.752Z,30.10
2018-09-09T16:15:50.553Z,30.25
2018-09-09T16:19:15.310Z,30.37
2018-09-09T16:22:40.127Z,30.71
2018-09-09T16:26:05.052Z,31.49
2018-09-09T16:29:29.806Z,31.25
2018-09-09T16:36:27.574Z,33.02
2018-09-09T16:39:53.079Z,33.39
2018-09-09T16:43:17.933Z,33.02
2018-09-09T16:46:42.862Z,31.38
2018-09-09T16:50:07.733Z,32.76
2018-09-09T16:53:32.691Z,35.55
2018-09-09T16:58:27.582Z,36.68
2018-09-09T17:01:52.442Z,39.86
2018-09-09T17:05:17.201Z,39.87
2018-09-09T17:08:42.515Z,40.68
2018-09-09T17:12:07.448Z,41.18
2018-09-09T17:15:32.309Z,42.44
2018-09-09T17:18:59.441Z,41.92
2018-09-09T17:22:24.229Z,42.57
2018-09-09T17:25:49.836Z,43.34
2018-09-09T17:29:16.503Z,43.87
2018-09-09T20:47:25.320Z,60.05
2018-09-09T20:50:50.079Z,58.70
2018-09-09T20:54:14.845Z,57.23
2018-09-09T20:57:39.642Z,57.74
2018-09-09T21:05:35.546Z,58.77
2018-09-09T21:09:00.350Z,61.95
2018-09-09T21:12:25.109Z,59.93
2018-09-09T21:15:50.624Z,58.93
2018-09-09T21:19:15.603Z,57.90
2018-09-09T21:22:40.526Z,59.21
2018-09-09T21:26:05.299Z,61.87
2018-09-09T21:29:30.522Z,61.76
2018-09-09T21:32:55.253Z,60.00
2018-09-09T21:36:20.635Z,63.11
2018-09-09T21:39:45.463Z,64.51
